sensor_id;sensor_type;location;lat;lon;timestamp;P1;durP1;ratioP1;P2;durP2;ratioP2
71435;SDS011;59251;51.326;12.370;2023-04-09T00:00:24;45.17;;;19.30;;
71435;SDS011;59251;51.326;12.370;2023-04-09T00:02:50;48.17;;;20.23;;
71435;SDS011;59251;51.326;12.370;2023-04-09T00:05:15;40.70;;;19.40;;
71435;SDS011;59251;51.326;12.370;2023-04-09T00:07:40;42.78;;;17.42;;
71435;SDS011;59251;51.326;12.370;2023-04-09T00:10:06;44.83;;;19.03;;
71435;SDS011;59251;51.326;12.370;2023-04-09T00:12:32;46.38;;;19.55;;
71435;SDS011;59251;51.326;12.370;2023-04-09T00:14:57;45.53;;;19.67;;
71435;SDS011;59251;51.326;12.370;2023-04-09T00:17:22;43.67;;;18.40;;
71435;SDS011;59251;51.326;12.370;2023-04-09T00:19:48;46.27;;;19.10;;
71435;SDS011;59251;51.326;12.370;2023-04-09T00:22:13;43.20;;;18.33;;
71435;SDS011;59251;51.326;12.370;2023-04-09T00:24:39;50.95;;;19.58;;
71435;SDS011;59251;51.326;12.370;2023-04-09T00:27:05;44.20;;;18.73;;
71435;SDS011;59251;51.326;12.370;2023-04-09T00:29:30;42.93;;;19.13;;
71435;SDS011;59251;51.326;12.370;2023-04-09T00:31:56;41.45;;;18.70;;
71435;SDS011;59251;51.326;12.370;2023-04-09T00:34:21;40.22;;;18.17;;
71435;SDS011;59251;51.326;12.370;2023-04-09T00:36:46;44.43;;;19.37;;
71435;SDS011;59251;51.326;12.370;2023-04-09T00:39:12;46.87;;;19.27;;
71435;SDS011;59251;51.326;12.370;2023-04-09T00:41:37;46.23;;;19.17;;
71435;SDS011;59251;51.326;12.370;2023-04-09T00:44:02;49.77;;;19.47;;
71435;SDS011;59251;51.326;12.370;2023-04-09T00:46:28;46.40;;;19.27;;
71435;SDS011;59251;51.326;12.370;2023-04-09T00:48:55;46.88;;;19.58;;
71435;SDS011;59251;51.326;12.370;2023-04-09T00:51:20;50.50;;;20.15;;
71435;SDS011;59251;51.326;12.370;2023-04-09T00:53:45;43.42;;;18.35;;
71435;SDS011;59251;51.326;12.370;2023-04-09T00:56:12;43.63;;;19.10;;
71435;SDS011;59251;51.326;12.370;2023-04-09T00:58:39;41.40;;;18.50;;
71435;SDS011;59251;51.326;12.370;2023-04-09T01:01:05;40.05;;;18.08;;
71435;SDS011;59251;51.326;12.370;2023-04-09T01:03:31;43.63;;;19.03;;
71435;SDS011;59251;51.326;12.370;2023-04-09T01:08:40;47.57;;;20.07;;
71435;SDS011;59251;51.326;12.370;2023-04-09T01:12:04;46.97;;;19.55;;
71435;SDS011;59251;51.326;12.370;2023-04-09T01:16:50;50.70;;;21.23;;
71435;SDS011;59251;51.326;12.370;2023-04-09T01:22:04;48.97;;;20.03;;
71435;SDS011;59251;51.326;12.370;2023-04-09T01:27:38;52.78;;;21.02;;
71435;SDS011;59251;51.326;12.370;2023-04-09T01:30:29;50.15;;;20.73;;
71435;SDS011;59251;51.326;12.370;2023-04-09T01:32:55;51.42;;;21.42;;
71435;SDS011;59251;51.326;12.370;2023-04-09T01:35:22;51.90;;;21.73;;
71435;SDS011;59251;51.326;12.370;2023-04-09T01:37:50;49.22;;;20.25;;
71435;SDS011;59251;51.326;12.370;2023-04-09T01:40:16;46.70;;;20.63;;
71435;SDS011;59251;51.326;12.370;2023-04-09T01:42:42;51.73;;;21.07;;
71435;SDS011;59251;51.326;12.370;2023-04-09T01:45:08;53.25;;;22.50;;
71435;SDS011;59251;51.326;12.370;2023-04-09T01:47:35;51.13;;;20.50;;
71435;SDS011;59251;51.326;12.370;2023-04-09T01:50:01;48.03;;;20.83;;
71435;SDS011;59251;51.326;12.370;2023-04-09T01:52:27;48.63;;;20.63;;
71435;SDS011;59251;51.326;12.370;2023-04-09T01:54:52;46.23;;;19.73;;
71435;SDS011;59251;51.326;12.370;2023-04-09T01:57:17;52.47;;;20.07;;
71435;SDS011;59251;51.326;12.370;2023-04-09T01:59:43;46.10;;;19.03;;
71435;SDS011;59251;51.326;12.370;2023-04-09T02:02:09;53.20;;;22.38;;
71435;SDS011;59251;51.326;12.370;2023-04-09T02:04:42;50.40;;;21.83;;
71435;SDS011;59251;51.326;12.370;2023-04-09T02:09:56;48.80;;;21.50;;
71435;SDS011;59251;51.326;12.370;2023-04-09T02:12:24;49.67;;;21.30;;
71435;SDS011;59251;51.326;12.370;2023-04-09T02:14:50;48.67;;;19.83;;
71435;SDS011;59251;51.326;12.370;2023-04-09T02:17:17;48.03;;;21.02;;
71435;SDS011;59251;51.326;12.370;2023-04-09T02:19:44;48.90;;;20.08;;
71435;SDS011;59251;51.326;12.370;2023-04-09T02:22:11;48.17;;;19.60;;
71435;SDS011;59251;51.326;12.370;2023-04-09T02:24:37;47.10;;;18.52;;
71435;SDS011;59251;51.326;12.370;2023-04-09T02:27:04;51.20;;;19.75;;
71435;SDS011;59251;51.326;12.370;2023-04-09T02:29:30;42.67;;;19.77;;
71435;SDS011;59251;51.326;12.370;2023-04-09T02:31:55;50.17;;;21.07;;
71435;SDS011;59251;51.326;12.370;2023-04-09T02:34:21;49.63;;;21.17;;
71435;SDS011;59251;51.326;12.370;2023-04-09T02:36:46;51.78;;;21.55;;
71435;SDS011;59251;51.326;12.370;2023-04-09T02:39:12;47.90;;;20.93;;
71435;SDS011;59251;51.326;12.370;2023-04-09T02:41:38;46.25;;;20.63;;
71435;SDS011;59251;51.326;12.370;2023-04-09T02:44:03;44.73;;;19.20;;
71435;SDS011;59251;51.326;12.370;2023-04-09T02:46:29;50.50;;;21.40;;
71435;SDS011;59251;51.326;12.370;2023-04-09T02:48:54;44.20;;;20.63;;
71435;SDS011;59251;51.326;12.370;2023-04-09T02:51:19;43.23;;;18.87;;
71435;SDS011;59251;51.326;12.370;2023-04-09T02:53:45;43.83;;;19.30;;
71435;SDS011;59251;51.326;12.370;2023-04-09T02:56:10;50.80;;;19.67;;
71435;SDS011;59251;51.326;12.370;2023-04-09T02:58:35;52.10;;;22.07;;
71435;SDS011;59251;51.326;12.370;2023-04-09T03:01:01;50.57;;;20.53;;
71435;SDS011;59251;51.326;12.370;2023-04-09T03:03:26;49.67;;;21.23;;
71435;SDS011;59251;51.326;12.370;2023-04-09T03:05:52;55.53;;;22.87;;
71435;SDS011;59251;51.326;12.370;2023-04-09T03:08:17;53.42;;;22.02;;
71435;SDS011;59251;51.326;12.370;2023-04-09T03:10:42;50.47;;;21.80;;
71435;SDS011;59251;51.326;12.370;2023-04-09T03:13:08;57.30;;;23.93;;
71435;SDS011;59251;51.326;12.370;2023-04-09T03:15:33;55.80;;;22.63;;
71435;SDS011;59251;51.326;12.370;2023-04-09T03:17:58;56.40;;;23.93;;
71435;SDS011;59251;51.326;12.370;2023-04-09T03:20:24;53.33;;;23.03;;
71435;SDS011;59251;51.326;12.370;2023-04-09T03:22:49;56.77;;;23.53;;
71435;SDS011;59251;51.326;12.370;2023-04-09T03:25:15;60.10;;;25.97;;
71435;SDS011;59251;51.326;12.370;2023-04-09T03:27:40;57.72;;;22.80;;
71435;SDS011;59251;51.326;12.370;2023-04-09T03:30:05;59.03;;;24.23;;
71435;SDS011;59251;51.326;12.370;2023-04-09T03:32:31;52.35;;;24.00;;
71435;SDS011;59251;51.326;12.370;2023-04-09T03:34:57;56.22;;;23.83;;
71435;SDS011;59251;51.326;12.370;2023-04-09T03:37:22;57.80;;;24.03;;
71435;SDS011;59251;51.326;12.370;2023-04-09T03:39:47;60.20;;;24.70;;
71435;SDS011;59251;51.326;12.370;2023-04-09T03:42:13;56.07;;;23.73;;
71435;SDS011;59251;51.326;12.370;2023-04-09T03:44:38;57.83;;;24.00;;
71435;SDS011;59251;51.326;12.370;2023-04-09T03:47:03;62.20;;;24.57;;
71435;SDS011;59251;51.326;12.370;2023-04-09T03:49:29;57.37;;;24.80;;
71435;SDS011;59251;51.326;12.370;2023-04-09T03:51:54;66.20;;;25.60;;
71435;SDS011;59251;51.326;12.370;2023-04-09T03:54:19;55.20;;;24.60;;
71435;SDS011;59251;51.326;12.370;2023-04-09T03:56:45;63.50;;;24.83;;
71435;SDS011;59251;51.326;12.370;2023-04-09T03:59:10;56.50;;;24.60;;
71435;SDS011;59251;51.326;12.370;2023-04-09T04:01:35;56.37;;;24.87;;
71435;SDS011;59251;51.326;12.370;2023-04-09T04:04:01;59.07;;;24.37;;
71435;SDS011;59251;51.326;12.370;2023-04-09T04:06:26;58.13;;;26.17;;
71435;SDS011;59251;51.326;12.370;2023-04-09T04:08:51;57.33;;;24.33;;
71435;SDS011;59251;51.326;12.370;2023-04-09T04:11:17;56.47;;;24.60;;
71435;SDS011;59251;51.326;12.370;2023-04-09T04:13:42;59.58;;;24.85;;
71435;SDS011;59251;51.326;12.370;2023-04-09T04:16:08;60.70;;;24.93;;
71435;SDS011;59251;51.326;12.370;2023-04-09T04:18:34;59.63;;;26.00;;
71435;SDS011;59251;51.326;12.370;2023-04-09T04:21:00;61.33;;;25.27;;
71435;SDS011;59251;51.326;12.370;2023-04-09T04:23:25;59.37;;;25.93;;
71435;SDS011;59251;51.326;12.370;2023-04-09T04:25:50;65.13;;;24.52;;
71435;SDS011;59251;51.326;12.370;2023-04-09T04:28:17;61.80;;;25.10;;
71435;SDS011;59251;51.326;12.370;2023-04-09T04:30:42;62.28;;;24.95;;
71435;SDS011;59251;51.326;12.370;2023-04-09T04:33:08;59.63;;;25.50;;
71435;SDS011;59251;51.326;12.370;2023-04-09T04:35:33;56.97;;;23.27;;
71435;SDS011;59251;51.326;12.370;2023-04-09T04:37:59;58.17;;;24.25;;
71435;SDS011;59251;51.326;12.370;2023-04-09T04:40:25;59.03;;;24.33;;
71435;SDS011;59251;51.326;12.370;2023-04-09T04:42:51;57.72;;;25.67;;
71435;SDS011;59251;51.326;12.370;2023-04-09T04:45:16;54.30;;;23.30;;
71435;SDS011;59251;51.326;12.370;2023-04-09T04:47:41;53.97;;;24.97;;
71435;SDS011;59251;51.326;12.370;2023-04-09T04:50:07;58.63;;;24.43;;
71435;SDS011;59251;51.326;12.370;2023-04-09T04:52:33;48.92;;;22.08;;
71435;SDS011;59251;51.326;12.370;2023-04-09T04:54:58;50.83;;;21.67;;
71435;SDS011;59251;51.326;12.370;2023-04-09T04:57:23;49.27;;;23.17;;
71435;SDS011;59251;51.326;12.370;2023-04-09T04:59:49;49.42;;;22.27;;
71435;SDS011;59251;51.326;12.370;2023-04-09T05:02:14;50.78;;;21.60;;
71435;SDS011;59251;51.326;12.370;2023-04-09T05:04:40;51.87;;;22.30;;
71435;SDS011;59251;51.326;12.370;2023-04-09T05:07:05;58.50;;;24.33;;
71435;SDS011;59251;51.326;12.370;2023-04-09T05:09:30;49.67;;;22.20;;
71435;SDS011;59251;51.326;12.370;2023-04-09T05:11:56;51.43;;;21.87;;
71435;SDS011;59251;51.326;12.370;2023-04-09T05:14:21;47.23;;;21.53;;
71435;SDS011;59251;51.326;12.370;2023-04-09T05:16:47;52.83;;;23.00;;
71435;SDS011;59251;51.326;12.370;2023-04-09T05:19:12;51.30;;;22.07;;
71435;SDS011;59251;51.326;12.370;2023-04-09T05:21:37;47.40;;;22.13;;
71435;SDS011;59251;51.326;12.370;2023-04-09T05:24:03;54.43;;;23.67;;
71435;SDS011;59251;51.326;12.370;2023-04-09T05:26:28;54.83;;;24.20;;
71435;SDS011;59251;51.326;12.370;2023-04-09T05:28:54;53.17;;;23.73;;
71435;SDS011;59251;51.326;12.370;2023-04-09T05:31:19;51.17;;;22.73;;
71435;SDS011;59251;51.326;12.370;2023-04-09T05:33:45;48.67;;;21.60;;
71435;SDS011;59251;51.326;12.370;2023-04-09T05:36:14;48.87;;;21.80;;
71435;SDS011;59251;51.326;12.370;2023-04-09T05:38:41;52.85;;;20.83;;
71435;SDS011;59251;51.326;12.370;2023-04-09T05:41:06;50.85;;;21.77;;
71435;SDS011;59251;51.326;12.370;2023-04-09T05:43:32;54.23;;;22.93;;
71435;SDS011;59251;51.326;12.370;2023-04-09T05:45:57;54.40;;;23.30;;
71435;SDS011;59251;51.326;12.370;2023-04-09T05:48:22;51.13;;;22.83;;
71435;SDS011;59251;51.326;12.370;2023-04-09T05:50:48;53.60;;;23.63;;
71435;SDS011;59251;51.326;12.370;2023-04-09T05:53:16;53.90;;;22.23;;
71435;SDS011;59251;51.326;12.370;2023-04-09T05:55:42;50.42;;;21.65;;
71435;SDS011;59251;51.326;12.370;2023-04-09T05:58:07;46.53;;;19.97;;
71435;SDS011;59251;51.326;12.370;2023-04-09T06:00:32;50.57;;;22.70;;
71435;SDS011;59251;51.326;12.370;2023-04-09T06:02:58;52.23;;;22.87;;
71435;SDS011;59251;51.326;12.370;2023-04-09T06:05:23;45.87;;;22.00;;
71435;SDS011;59251;51.326;12.370;2023-04-09T06:07:49;53.47;;;23.63;;
71435;SDS011;59251;51.326;12.370;2023-04-09T06:10:14;48.27;;;21.77;;
71435;SDS011;59251;51.326;12.370;2023-04-09T06:12:40;51.70;;;21.83;;
71435;SDS011;59251;51.326;12.370;2023-04-09T06:15:05;49.30;;;21.43;;
71435;SDS011;59251;51.326;12.370;2023-04-09T06:17:31;44.55;;;20.92;;
71435;SDS011;59251;51.326;12.370;2023-04-09T06:19:56;49.20;;;22.17;;
71435;SDS011;59251;51.326;12.370;2023-04-09T06:22:22;52.00;;;22.10;;
71435;SDS011;59251;51.326;12.370;2023-04-09T06:24:47;48.00;;;21.13;;
71435;SDS011;59251;51.326;12.370;2023-04-09T06:27:12;48.93;;;21.37;;
71435;SDS011;59251;51.326;12.370;2023-04-09T06:29:38;49.55;;;21.05;;
71435;SDS011;59251;51.326;12.370;2023-04-09T06:32:04;49.83;;;21.98;;
71435;SDS011;59251;51.326;12.370;2023-04-09T06:34:30;47.80;;;20.73;;
71435;SDS011;59251;51.326;12.370;2023-04-09T06:36:55;44.72;;;20.08;;
71435;SDS011;59251;51.326;12.370;2023-04-09T06:39:20;45.23;;;20.30;;
71435;SDS011;59251;51.326;12.370;2023-04-09T06:41:46;44.53;;;20.70;;
71435;SDS011;59251;51.326;12.370;2023-04-09T06:44:11;41.97;;;18.37;;
71435;SDS011;59251;51.326;12.370;2023-04-09T06:46:37;38.92;;;18.73;;
71435;SDS011;59251;51.326;12.370;2023-04-09T06:49:02;41.60;;;18.80;;
71435;SDS011;59251;51.326;12.370;2023-04-09T06:51:27;39.67;;;18.03;;
71435;SDS011;59251;51.326;12.370;2023-04-09T06:53:53;40.10;;;19.90;;
71435;SDS011;59251;51.326;12.370;2023-04-09T06:56:18;44.40;;;18.57;;
71435;SDS011;59251;51.326;12.370;2023-04-09T06:58:43;40.03;;;18.50;;
71435;SDS011;59251;51.326;12.370;2023-04-09T07:01:09;42.77;;;19.43;;
71435;SDS011;59251;51.326;12.370;2023-04-09T07:03:34;43.40;;;20.13;;
71435;SDS011;59251;51.326;12.370;2023-04-09T07:05:59;42.93;;;18.87;;
71435;SDS011;59251;51.326;12.370;2023-04-09T07:08:25;37.38;;;17.75;;
71435;SDS011;59251;51.326;12.370;2023-04-09T07:10:52;38.93;;;18.57;;
71435;SDS011;59251;51.326;12.370;2023-04-09T07:13:18;41.20;;;20.05;;
71435;SDS011;59251;51.326;12.370;2023-04-09T07:15:43;39.70;;;18.93;;
71435;SDS011;59251;51.326;12.370;2023-04-09T07:18:08;38.77;;;20.17;;
71435;SDS011;59251;51.326;12.370;2023-04-09T07:20:34;41.23;;;19.47;;
71435;SDS011;59251;51.326;12.370;2023-04-09T07:22:59;37.97;;;17.20;;
71435;SDS011;59251;51.326;12.370;2023-04-09T07:25:25;43.40;;;18.83;;
71435;SDS011;59251;51.326;12.370;2023-04-09T07:27:50;40.53;;;18.15;;
71435;SDS011;59251;51.326;12.370;2023-04-09T07:30:15;38.90;;;17.57;;
71435;SDS011;59251;51.326;12.370;2023-04-09T07:32:41;35.73;;;16.07;;
71435;SDS011;59251;51.326;12.370;2023-04-09T07:35:06;46.50;;;20.47;;
71435;SDS011;59251;51.326;12.370;2023-04-09T07:37:33;38.72;;;17.45;;
71435;SDS011;59251;51.326;12.370;2023-04-09T07:39:59;38.83;;;17.95;;
71435;SDS011;59251;51.326;12.370;2023-04-09T07:42:25;38.97;;;18.33;;
71435;SDS011;59251;51.326;12.370;2023-04-09T07:44:51;35.80;;;17.07;;
71435;SDS011;59251;51.326;12.370;2023-04-09T07:47:16;37.33;;;17.40;;
71435;SDS011;59251;51.326;12.370;2023-04-09T07:49:41;36.37;;;17.37;;
71435;SDS011;59251;51.326;12.370;2023-04-09T07:52:07;38.27;;;18.10;;
71435;SDS011;59251;51.326;12.370;2023-04-09T07:54:33;34.10;;;16.83;;
71435;SDS011;59251;51.326;12.370;2023-04-09T07:56:58;36.60;;;16.27;;
71435;SDS011;59251;51.326;12.370;2023-04-09T07:59:25;34.08;;;16.33;;
71435;SDS011;59251;51.326;12.370;2023-04-09T08:01:51;35.53;;;17.15;;
71435;SDS011;59251;51.326;12.370;2023-04-09T08:04:17;36.77;;;17.20;;
71435;SDS011;59251;51.326;12.370;2023-04-09T08:06:42;39.28;;;18.35;;
71435;SDS011;59251;51.326;12.370;2023-04-09T08:09:13;35.47;;;17.10;;
71435;SDS011;59251;51.326;12.370;2023-04-09T08:11:39;35.42;;;16.08;;
71435;SDS011;59251;51.326;12.370;2023-04-09T08:14:04;30.87;;;14.57;;
71435;SDS011;59251;51.326;12.370;2023-04-09T08:16:30;33.67;;;16.10;;
71435;SDS011;59251;51.326;12.370;2023-04-09T08:18:55;37.17;;;17.70;;
71435;SDS011;59251;51.326;12.370;2023-04-09T08:21:21;33.50;;;16.35;;
71435;SDS011;59251;51.326;12.370;2023-04-09T08:23:47;34.90;;;16.70;;
71435;SDS011;59251;51.326;12.370;2023-04-09T08:26:12;32.60;;;14.80;;
71435;SDS011;59251;51.326;12.370;2023-04-09T08:28:37;34.67;;;15.40;;
71435;SDS011;59251;51.326;12.370;2023-04-09T08:31:03;33.27;;;15.57;;
71435;SDS011;59251;51.326;12.370;2023-04-09T08:33:28;35.43;;;17.20;;
71435;SDS011;59251;51.326;12.370;2023-04-09T08:35:54;32.30;;;16.17;;
71435;SDS011;59251;51.326;12.370;2023-04-09T08:38:20;33.00;;;15.73;;
71435;SDS011;59251;51.326;12.370;2023-04-09T08:40:45;32.00;;;17.07;;
71435;SDS011;59251;51.326;12.370;2023-04-09T08:43:13;33.78;;;17.00;;
71435;SDS011;59251;51.326;12.370;2023-04-09T08:45:40;33.67;;;16.67;;
71435;SDS011;59251;51.326;12.370;2023-04-09T08:48:06;39.63;;;18.73;;
71435;SDS011;59251;51.326;12.370;2023-04-09T08:50:33;31.88;;;16.48;;
71435;SDS011;59251;51.326;12.370;2023-04-09T08:53:01;36.17;;;18.30;;
71435;SDS011;59251;51.326;12.370;2023-04-09T08:55:28;36.17;;;17.48;;
71435;SDS011;59251;51.326;12.370;2023-04-09T08:57:55;36.40;;;18.52;;
71435;SDS011;59251;51.326;12.370;2023-04-09T09:00:22;33.97;;;16.75;;
71435;SDS011;59251;51.326;12.370;2023-04-09T09:05:45;34.58;;;15.43;;
71435;SDS011;59251;51.326;12.370;2023-04-09T09:08:12;30.53;;;14.63;;
71435;SDS011;59251;51.326;12.370;2023-04-09T09:10:47;30.45;;;14.77;;
71435;SDS011;59251;51.326;12.370;2023-04-09T09:15:42;26.85;;;13.27;;
71435;SDS011;59251;51.326;12.370;2023-04-09T09:18:07;30.03;;;13.60;;
71435;SDS011;59251;51.326;12.370;2023-04-09T09:20:33;32.00;;;17.10;;
71435;SDS011;59251;51.326;12.370;2023-04-09T09:22:58;31.85;;;16.48;;
71435;SDS011;59251;51.326;12.370;2023-04-09T09:25:24;32.23;;;15.27;;
71435;SDS011;59251;51.326;12.370;2023-04-09T09:27:50;27.48;;;13.65;;
71435;SDS011;59251;51.326;12.370;2023-04-09T09:30:22;28.33;;;14.27;;
71435;SDS011;59251;51.326;12.370;2023-04-09T09:32:50;24.10;;;12.40;;
71435;SDS011;59251;51.326;12.370;2023-04-09T09:35:28;24.65;;;11.88;;
71435;SDS011;59251;51.326;12.370;2023-04-09T09:38:02;26.07;;;12.60;;
71435;SDS011;59251;51.326;12.370;2023-04-09T09:40:28;27.70;;;13.80;;
71435;SDS011;59251;51.326;12.370;2023-04-09T09:42:56;25.17;;;12.60;;
71435;SDS011;59251;51.326;12.370;2023-04-09T09:45:22;25.92;;;13.00;;
71435;SDS011;59251;51.326;12.370;2023-04-09T09:47:48;23.42;;;12.60;;
71435;SDS011;59251;51.326;12.370;2023-04-09T09:50:15;24.30;;;11.23;;
71435;SDS011;59251;51.326;12.370;2023-04-09T09:52:40;23.45;;;11.45;;
71435;SDS011;59251;51.326;12.370;2023-04-09T09:55:09;26.90;;;13.55;;
71435;SDS011;59251;51.326;12.370;2023-04-09T09:57:39;26.20;;;12.77;;
71435;SDS011;59251;51.326;12.370;2023-04-09T10:00:08;23.50;;;11.95;;
71435;SDS011;59251;51.326;12.370;2023-04-09T10:02:38;25.70;;;11.40;;
71435;SDS011;59251;51.326;12.370;2023-04-09T10:05:07;23.90;;;12.48;;
71435;SDS011;59251;51.326;12.370;2023-04-09T10:07:33;22.53;;;11.50;;
71435;SDS011;59251;51.326;12.370;2023-04-09T10:09:58;22.00;;;11.55;;
71435;SDS011;59251;51.326;12.370;2023-04-09T10:12:25;24.50;;;11.33;;
71435;SDS011;59251;51.326;12.370;2023-04-09T10:14:51;22.15;;;12.07;;
71435;SDS011;59251;51.326;12.370;2023-04-09T10:17:17;22.80;;;11.82;;
71435;SDS011;59251;51.326;12.370;2023-04-09T10:19:45;23.35;;;10.60;;
71435;SDS011;59251;51.326;12.370;2023-04-09T10:22:21;21.98;;;11.27;;
71435;SDS011;59251;51.326;12.370;2023-04-09T10:24:50;24.08;;;11.70;;
71435;SDS011;59251;51.326;12.370;2023-04-09T10:27:16;23.92;;;11.57;;
71435;SDS011;59251;51.326;12.370;2023-04-09T10:29:46;22.20;;;10.87;;
71435;SDS011;59251;51.326;12.370;2023-04-09T10:32:17;21.67;;;11.60;;
71435;SDS011;59251;51.326;12.370;2023-04-09T10:34:48;24.38;;;12.15;;
71435;SDS011;59251;51.326;12.370;2023-04-09T10:37:15;24.00;;;11.60;;
71435;SDS011;59251;51.326;12.370;2023-04-09T10:39:46;22.63;;;11.10;;
71435;SDS011;59251;51.326;12.370;2023-04-09T10:42:13;22.03;;;11.40;;
71435;SDS011;59251;51.326;12.370;2023-04-09T10:44:40;19.45;;;10.57;;
71435;SDS011;59251;51.326;12.370;2023-04-09T10:47:06;20.95;;;11.43;;
71435;SDS011;59251;51.326;12.370;2023-04-09T10:49:36;20.80;;;10.52;;
71435;SDS011;59251;51.326;12.370;2023-04-09T10:52:07;21.67;;;10.73;;
71435;SDS011;59251;51.326;12.370;2023-04-09T10:54:43;21.43;;;11.27;;
71435;SDS011;59251;51.326;12.370;2023-04-09T10:59:48;21.58;;;11.32;;
71435;SDS011;59251;51.326;12.370;2023-04-09T11:07:53;19.83;;;9.70;;
71435;SDS011;59251;51.326;12.370;2023-04-09T11:10:32;19.52;;;11.25;;
71435;SDS011;59251;51.326;12.370;2023-04-09T11:12:58;16.58;;;9.43;;
71435;SDS011;59251;51.326;12.370;2023-04-09T11:15:24;20.40;;;10.38;;
71435;SDS011;59251;51.326;12.370;2023-04-09T11:17:49;19.47;;;10.23;;
71435;SDS011;59251;51.326;12.370;2023-04-09T11:20:16;20.48;;;10.85;;
71435;SDS011;59251;51.326;12.370;2023-04-09T11:22:44;19.85;;;9.63;;
71435;SDS011;59251;51.326;12.370;2023-04-09T11:25:16;19.25;;;10.10;;
71435;SDS011;59251;51.326;12.370;2023-04-09T11:27:43;20.53;;;10.47;;
71435;SDS011;59251;51.326;12.370;2023-04-09T11:30:09;19.52;;;9.93;;
71435;SDS011;59251;51.326;12.370;2023-04-09T11:32:34;18.20;;;10.05;;
71435;SDS011;59251;51.326;12.370;2023-04-09T11:34:59;19.65;;;10.43;;
71435;SDS011;59251;51.326;12.370;2023-04-09T11:37:25;22.27;;;10.17;;
71435;SDS011;59251;51.326;12.370;2023-04-09T11:39:51;17.50;;;9.43;;
71435;SDS011;59251;51.326;12.370;2023-04-09T11:42:18;21.17;;;9.98;;
71435;SDS011;59251;51.326;12.370;2023-04-09T11:44:46;18.05;;;10.68;;
71435;SDS011;59251;51.326;12.370;2023-04-09T11:47:13;16.83;;;9.00;;
71435;SDS011;59251;51.326;12.370;2023-04-09T11:49:40;18.67;;;10.05;;
71435;SDS011;59251;51.326;12.370;2023-04-09T11:52:06;17.92;;;9.20;;
71435;SDS011;59251;51.326;12.370;2023-04-09T11:54:32;17.17;;;8.97;;
71435;SDS011;59251;51.326;12.370;2023-04-09T11:57:07;17.88;;;9.50;;
71435;SDS011;59251;51.326;12.370;2023-04-09T11:59:32;17.20;;;8.90;;
71435;SDS011;59251;51.326;12.370;2023-04-09T12:01:57;17.00;;;9.27;;
71435;SDS011;59251;51.326;12.370;2023-04-09T12:04:23;16.03;;;8.73;;
71435;SDS011;59251;51.326;12.370;2023-04-09T12:06:49;16.07;;;8.90;;
71435;SDS011;59251;51.326;12.370;2023-04-09T12:09:14;14.20;;;7.83;;
71435;SDS011;59251;51.326;12.370;2023-04-09T12:11:43;17.35;;;9.65;;
71435;SDS011;59251;51.326;12.370;2023-04-09T12:14:13;17.40;;;9.60;;
71435;SDS011;59251;51.326;12.370;2023-04-09T12:16:43;16.95;;;9.85;;
71435;SDS011;59251;51.326;12.370;2023-04-09T12:19:09;15.73;;;9.27;;
71435;SDS011;59251;51.326;12.370;2023-04-09T12:21:51;15.70;;;9.48;;
71435;SDS011;59251;51.326;12.370;2023-04-09T12:24:19;17.13;;;10.20;;
71435;SDS011;59251;51.326;12.370;2023-04-09T12:26:47;15.53;;;8.90;;
71435;SDS011;59251;51.326;12.370;2023-04-09T12:29:16;15.30;;;8.50;;
71435;SDS011;59251;51.326;12.370;2023-04-09T12:31:43;16.25;;;9.15;;
71435;SDS011;59251;51.326;12.370;2023-04-09T12:34:09;16.63;;;9.83;;
71435;SDS011;59251;51.326;12.370;2023-04-09T12:36:34;18.90;;;10.25;;
71435;SDS011;59251;51.326;12.370;2023-04-09T12:39:00;15.43;;;9.57;;
71435;SDS011;59251;51.326;12.370;2023-04-09T12:41:25;18.93;;;10.73;;
71435;SDS011;59251;51.326;12.370;2023-04-09T12:43:51;20.20;;;11.48;;
71435;SDS011;59251;51.326;12.370;2023-04-09T12:46:17;17.63;;;10.83;;
71435;SDS011;59251;51.326;12.370;2023-04-09T12:48:43;18.50;;;11.10;;
71435;SDS011;59251;51.326;12.370;2023-04-09T12:51:08;18.80;;;11.27;;
71435;SDS011;59251;51.326;12.370;2023-04-09T12:53:35;18.25;;;11.43;;
71435;SDS011;59251;51.326;12.370;2023-04-09T12:56:00;20.70;;;13.63;;
71435;SDS011;59251;51.326;12.370;2023-04-09T12:58:26;18.50;;;10.95;;
71435;SDS011;59251;51.326;12.370;2023-04-09T13:00:52;18.57;;;10.53;;
71435;SDS011;59251;51.326;12.370;2023-04-09T13:03:18;18.38;;;10.85;;
71435;SDS011;59251;51.326;12.370;2023-04-09T13:05:44;18.27;;;11.65;;
71435;SDS011;59251;51.326;12.370;2023-04-09T13:08:09;18.83;;;11.73;;
71435;SDS011;59251;51.326;12.370;2023-04-09T13:10:35;19.93;;;11.83;;
71435;SDS011;59251;51.326;12.370;2023-04-09T13:13:01;19.70;;;12.57;;
71435;SDS011;59251;51.326;12.370;2023-04-09T13:15:26;17.65;;;11.23;;
71435;SDS011;59251;51.326;12.370;2023-04-09T13:17:52;16.60;;;10.93;;
71435;SDS011;59251;51.326;12.370;2023-04-09T13:20:17;17.27;;;10.50;;
71435;SDS011;59251;51.326;12.370;2023-04-09T13:22:43;19.90;;;12.63;;
71435;SDS011;59251;51.326;12.370;2023-04-09T13:25:12;19.92;;;12.45;;
71435;SDS011;59251;51.326;12.370;2023-04-09T13:27:38;19.07;;;10.97;;
71435;SDS011;59251;51.326;12.370;2023-04-09T13:30:04;17.47;;;10.83;;
71435;SDS011;59251;51.326;12.370;2023-04-09T13:32:30;18.38;;;12.20;;
71435;SDS011;59251;51.326;12.370;2023-04-09T13:34:55;19.77;;;11.50;;
71435;SDS011;59251;51.326;12.370;2023-04-09T13:37:21;18.98;;;11.70;;
71435;SDS011;59251;51.326;12.370;2023-04-09T13:39:48;18.17;;;11.20;;
71435;SDS011;59251;51.326;12.370;2023-04-09T13:42:14;19.00;;;11.32;;
71435;SDS011;59251;51.326;12.370;2023-04-09T13:44:41;18.10;;;11.15;;
71435;SDS011;59251;51.326;12.370;2023-04-09T13:47:09;20.73;;;12.38;;
71435;SDS011;59251;51.326;12.370;2023-04-09T13:49:37;20.35;;;11.18;;
71435;SDS011;59251;51.326;12.370;2023-04-09T13:52:03;17.43;;;10.37;;
71435;SDS011;59251;51.326;12.370;2023-04-09T13:54:28;18.25;;;11.40;;
71435;SDS011;59251;51.326;12.370;2023-04-09T13:56:54;17.40;;;10.87;;
71435;SDS011;59251;51.326;12.370;2023-04-09T13:59:20;17.87;;;10.57;;
71435;SDS011;59251;51.326;12.370;2023-04-09T14:01:45;19.73;;;12.20;;
71435;SDS011;59251;51.326;12.370;2023-04-09T14:04:10;19.17;;;11.57;;
71435;SDS011;59251;51.326;12.370;2023-04-09T14:06:36;18.60;;;12.20;;
71435;SDS011;59251;51.326;12.370;2023-04-09T14:09:01;19.40;;;12.10;;
71435;SDS011;59251;51.326;12.370;2023-04-09T14:11:27;18.47;;;10.73;;
71435;SDS011;59251;51.326;12.370;2023-04-09T14:13:53;18.67;;;10.87;;
71435;SDS011;59251;51.326;12.370;2023-04-09T14:16:19;18.00;;;11.27;;
71435;SDS011;59251;51.326;12.370;2023-04-09T14:18:44;18.70;;;11.65;;
71435;SDS011;59251;51.326;12.370;2023-04-09T14:21:09;17.20;;;11.47;;
71435;SDS011;59251;51.326;12.370;2023-04-09T14:23:35;18.10;;;10.70;;
71435;SDS011;59251;51.326;12.370;2023-04-09T14:26:01;16.52;;;10.77;;
71435;SDS011;59251;51.326;12.370;2023-04-09T14:28:28;17.30;;;10.23;;
71435;SDS011;59251;51.326;12.370;2023-04-09T14:30:53;16.40;;;10.30;;